Terminal Aerodrome Forecast
Issued by NWS Bismarck, ND

Home | Current Version | Previous Version | Graphics & Text | Print | Product List | Glossary On
Versions: 1 2 3 4 5 6 7 8 9 10 11 12 13 14 15 16 17 18 19
000
FTUS43 KBIS 062119 AAB
TAFBIS
TAF AMD
KBIS 062119Z 0621/0718 16017KT P6SM VCTS SCT015CB BKN100
     FM070200 VRB05KT 3SM -SHRA BR SCT015 OVC025
     FM070900 34010KT P6SM VCSH OVC010=

USA.gov is the U.S. government's official web portal to all federal, state and local government web resources and services.